Terminal Aerodrome Forecast
Issued by NWS Paducah, KY

Home | Current Version | Previous Version | Text Only | Print | Product List | Glossary On
Versions: 1 2 3 4 5 6 7 8 9 10 11 12 13 14 15 16
000
FTUS43 KPAH 212344
TAFEVV
TAF
KEVV 212344Z 2200/2224 02007KT 6SM -SHRA BR BKN035
     FM220300 03009KT 3SM RA BR BKN025
     FM220500 03012KT 6SM -SHRA BR SCT008 OVC025
     FM220900 03013KT 5SM -SHRA OVC010
     FM221200 05012G19KT 6SM -SHRA OVC015=

USA.gov is the U.S. government's official web portal to all federal, state and local government web resources and services.